Time;durP1;ratioP1;P1;durP2;ratioP2;P2;SDS_P1;SDS_P2;PMS_P1;PMS_P2;Temp;Humidity;BMP_temperature;BMP_pressure;BME280_temperature;BME280_humidity;BME280_pressure;Samples;Min_cycle;Max_cycle;Signal;HPM_P1;HPM_P2
2022/03/12 00:01:36;;;;;;;7.60;4.47;;;8.90;44.00;;;9.32;nan;100799.84;5014098;28;20617;-71
2022/03/12 00:04:07;;;;;;;5.83;3.83;;;8.90;44.00;;;9.34;nan;100807.56;4997324;28;20621;-71
2022/03/12 00:06:34;;;;;;;5.83;3.87;;;8.90;44.30;;;9.28;nan;100802.75;5013353;28;20975;-71
2022/03/12 00:09:03;;;;;;;8.47;4.47;;;8.90;44.80;;;9.25;nan;100803.78;5012531;28;20624;-71
2022/03/12 00:11:34;;;;;;;6.20;4.03;;;8.90;45.10;;;9.18;nan;100801.63;5010787;28;20644;-71
2022/03/12 00:14:04;;;;;;;8.77;4.53;;;8.80;45.30;;;9.19;nan;100814.59;5014103;28;20646;-71
2022/03/12 00:16:32;;;;;;;6.60;3.80;;;8.80;45.50;;;9.09;nan;100818.66;4997140;28;20629;-71
2022/03/12 00:19:02;;;;;;;5.73;4.27;;;8.70;45.60;;;9.09;nan;100818.66;4995104;28;20664;-71
2022/03/12 00:21:33;;;;;;;8.77;4.40;;;8.70;45.90;;;9.01;nan;100820.94;5012204;28;20672;-70
2022/03/12 00:24:06;;;;;;;5.00;4.17;;;8.60;46.10;;;9.01;nan;100820.94;5013339;28;20636;-71
2022/03/12 00:26:37;;;;;;;11.20;4.33;;;8.60;46.20;;;8.98;nan;100821.13;4991622;28;20633;-71
2022/03/12 00:29:04;;;;;;;7.63;3.77;;;8.60;46.40;;;8.97;nan;100819.44;4996230;28;21223;-71
2022/03/12 00:31:33;;;;;;;6.13;4.50;;;8.60;46.60;;;8.91;nan;100819.84;4994950;28;20617;-71
2022/03/12 00:34:00;;;;;;;8.70;4.50;;;8.60;46.90;;;8.84;nan;100821.13;5011007;28;20645;-71
2022/03/12 00:36:27;;;;;;;4.87;3.90;;;8.50;47.20;;;8.85;nan;100835.84;5011139;28;20633;-73
2022/03/12 00:38:57;;;;;;;6.93;4.60;;;8.50;47.80;;;8.81;nan;100826.53;5012581;28;20629;-71
2022/03/12 00:41:25;;;;;;;7.10;4.10;;;8.40;47.40;;;8.82;nan;100823.00;5011364;28;21032;-71
2022/03/12 00:43:52;;;;;;;7.10;4.13;;;8.40;47.70;;;8.78;nan;100820.69;4988402;28;20621;-71
2022/03/12 00:46:20;;;;;;;5.18;3.90;;;8.40;47.70;;;8.76;nan;100812.13;5012882;28;20659;-71
2022/03/12 00:48:47;;;;;;;7.70;4.00;;;8.40;47.70;;;8.78;nan;100811.09;4995096;28;20221;-71
2022/03/12 00:51:14;;;;;;;6.43;4.30;;;8.40;46.70;;;8.70;nan;100813.34;5010559;28;20641;-70
2022/03/12 00:53:41;;;;;;;7.77;4.33;;;8.40;47.60;;;8.63;nan;100819.84;5012035;28;20664;-70
2022/03/12 00:56:09;;;;;;;5.90;3.67;;;8.30;48.00;;;8.65;nan;100825.78;4994784;28;20617;-69
2022/03/12 00:58:37;;;;;;;11.57;4.32;;;8.30;48.60;;;8.56;nan;100821.16;5010933;28;20634;-71
2022/03/12 01:01:06;;;;;;;5.40;3.83;;;8.20;48.70;;;8.56;nan;100831.56;4991394;28;20234;-71
2022/03/12 01:03:33;;;;;;;6.00;3.60;;;8.20;48.80;;;8.51;nan;100831.84;4994400;28;20227;-71
2022/03/12 01:06:03;;;;;;;5.50;3.60;;;8.10;48.50;;;8.51;nan;100828.41;5011782;28;20630;-71
2022/03/12 01:08:31;;;;;;;6.80;4.53;;;8.10;48.60;;;8.51;nan;100831.00;5011458;28;20621;-70
2022/03/12 01:11:04;;;;;;;5.43;4.13;;;8.10;48.80;;;8.48;nan;100821.63;4993986;28;20666;-71
2022/03/12 01:13:31;;;;;;;5.83;4.30;;;8.10;49.00;;;8.47;nan;100824.31;5010084;28;20664;-66
2022/03/12 01:15:58;;;;;;;6.00;3.67;;;8.10;49.30;;;8.51;nan;100823.19;5010175;28;20629;-72
2022/03/12 01:18:27;;;;;;;5.70;3.80;;;8.10;49.40;;;8.50;nan;100824.97;4978465;28;20682;-71
2022/03/12 01:20:54;;;;;;;7.27;4.23;;;8.10;49.60;;;8.49;nan;100819.88;4991497;28;20673;-72
2022/03/12 01:23:25;;;;;;;7.43;4.13;;;8.10;49.70;;;8.49;nan;100823.31;4992624;28;20654;-71
2022/03/12 01:25:53;;;;;;;6.43;4.10;;;8.10;50.00;;;8.48;nan;100820.78;4992639;28;20661;-73
2022/03/12 01:28:21;;;;;;;8.33;4.70;;;8.10;50.20;;;8.48;nan;100823.38;4992675;28;20604;-71
2022/03/12 01:30:48;;;;;;;8.40;4.30;;;8.10;50.50;;;8.43;nan;100815.84;5010444;28;20691;-71
2022/03/12 01:33:17;;;;;;;6.28;3.97;;;8.10;50.60;;;8.43;nan;100823.66;5003738;28;20661;-71
2022/03/12 01:35:44;;;;;;;7.60;5.03;;;8.10;50.90;;;8.43;nan;100822.84;5010311;28;20694;-71
2022/03/12 01:38:11;;;;;;;6.55;4.45;;;8.10;51.00;;;8.41;nan;100816.91;5013122;28;20991;-71
2022/03/12 01:40:38;;;;;;;8.68;4.72;;;8.10;51.10;;;8.43;nan;100815.84;5011759;28;20223;-71
2022/03/12 01:43:06;;;;;;;5.25;4.32;;;8.10;51.20;;;8.47;nan;100822.56;5012774;28;20281;-71
2022/03/12 01:45:35;;;;;;;5.13;3.80;;;8.20;51.30;;;8.43;nan;100825.44;5011054;28;20215;-72
2022/03/12 01:48:05;;;;;;;8.40;4.93;;;8.00;51.10;;;8.39;nan;100829.16;5012152;28;20206;-71
2022/03/12 01:50:36;;;;;;;9.77;5.25;;;8.00;50.90;;;8.43;nan;100833.25;5010499;28;21191;-72
2022/03/12 01:53:10;;;;;;;7.30;4.53;;;8.10;51.00;;;8.43;nan;100838.44;5012780;28;20238;-71
2022/03/12 01:55:39;;;;;;;8.60;4.47;;;8.10;51.00;;;8.40;nan;100841.22;5008878;28;20772;-72
2022/03/12 01:58:08;;;;;;;6.77;4.37;;;8.00;50.50;;;8.42;nan;100841.94;5011744;28;20686;-72
2022/03/12 02:00:46;;;;;;;6.93;4.07;;;8.10;50.00;;;8.44;nan;100851.34;4996766;28;20777;-72
2022/03/12 02:03:16;;;;;;;5.03;3.50;;;8.10;50.10;;;8.42;nan;100834.16;5004351;28;20664;-72
2022/03/12 02:05:43;;;;;;;6.27;4.50;;;8.10;50.00;;;8.41;nan;100841.09;5009629;28;20617;-71
2022/03/12 02:08:13;;;;;;;4.72;3.95;;;8.10;50.10;;;8.40;nan;100844.66;5005301;28;21221;-72
2022/03/12 02:10:44;;;;;;;8.88;4.53;;;8.10;49.80;;;8.39;nan;100842.16;4998932;28;20207;-70
2022/03/12 02:13:12;;;;;;;7.40;4.45;;;8.00;50.00;;;8.40;nan;100843.81;4986258;28;20222;-71
2022/03/12 02:15:40;;;;;;;7.38;4.35;;;8.00;50.10;;;8.40;nan;100846.41;4993138;28;20210;-69
2022/03/12 02:18:07;;;;;;;8.80;4.83;;;8.00;50.10;;;8.35;nan;100840.63;4991799;28;20317;-71
2022/03/12 02:20:35;;;;;;;10.23;5.10;;;8.00;50.10;;;8.35;nan;100843.22;5010150;28;20666;-71
2022/03/12 02:23:02;;;;;;;9.05;4.68;;;8.00;50.50;;;8.33;nan;100847.69;4991724;28;20646;-71
2022/03/12 02:25:32;;;;;;;9.35;5.22;;;8.00;50.60;;;8.33;nan;100845.09;4992529;28;20200;-71
2022/03/12 02:28:03;;;;;;;5.67;4.10;;;8.00;50.50;;;8.35;nan;100841.47;4974456;28;20214;-71
2022/03/12 02:30:37;;;;;;;5.87;3.87;;;8.00;50.30;;;8.38;nan;100843.91;5005921;28;20664;-71
2022/03/12 02:33:05;;;;;;;4.47;3.53;;;8.00;50.00;;;8.26;nan;100843.81;5003228;28;20643;-73
2022/03/12 02:35:35;;;;;;;4.38;3.30;;;7.90;49.80;;;8.10;nan;100843.81;5024751;28;20210;-73
2022/03/12 02:38:04;;;;;;;3.95;3.08;;;7.80;49.90;;;8.13;nan;100848.00;5025332;28;20205;-71
2022/03/12 02:40:35;;;;;;;5.68;3.50;;;7.80;49.90;;;8.13;nan;100845.41;4999573;28;20695;-72
2022/03/12 02:43:03;;;;;;;4.40;4.00;;;7.80;50.00;;;8.09;nan;100849.13;4988360;28;20230;-72
2022/03/12 02:45:30;;;;;;;7.63;4.70;;;7.70;50.00;;;8.05;nan;100845.84;4993664;28;20210;-71
2022/03/12 02:47:57;;;;;;;7.95;5.03;;;7.70;50.00;;;8.02;nan;100847.78;4992240;28;20675;-71
2022/03/12 02:50:25;;;;;;;6.00;4.50;;;7.70;50.30;;;8.02;nan;100850.38;5003646;28;20261;-72
2022/03/12 02:52:52;;;;;;;8.40;4.68;;;7.70;50.30;;;7.97;nan;100848.06;4994020;28;20661;-72
2022/03/12 02:55:23;;;;;;;5.50;4.13;;;7.60;50.60;;;8.00;nan;100857.44;5008986;28;20213;-73
2022/03/12 02:57:51;;;;;;;7.82;4.80;;;7.60;50.70;;;8.02;nan;100853.81;4993273;28;20212;-72
2022/03/12 03:00:20;;;;;;;9.65;3.40;;;7.70;50.70;;;7.91;nan;100857.97;5009352;28;20230;-73
2022/03/12 03:02:56;;;;;;;8.93;4.90;;;7.60;50.10;;;7.91;nan;100870.94;5000648;28;20223;-72
2022/03/12 03:07:58;;;;;;;8.55;4.80;;;7.50;50.70;;;7.83;nan;100864.44;5010123;28;20583;-71
2022/03/12 03:10:34;;;;;;;6.88;4.55;;;7.50;50.80;;;7.85;nan;100864.34;4976791;28;20678;-72
2022/03/12 03:13:20;;;;;;;8.27;4.55;;;7.50;50.80;;;7.81;nan;100871.47;5017237;28;20734;-72
2022/03/12 03:15:54;;;;;;;4.97;4.18;;;7.50;50.80;;;7.80;nan;100876.75;5025857;28;20206;-71
2022/03/12 03:18:24;;;;;;;7.47;4.53;;;7.50;50.90;;;7.83;nan;100880.03;4983907;28;20664;-72
2022/03/12 03:20:53;;;;;;;12.23;5.28;;;7.50;50.80;;;7.84;nan;100888.63;5015184;28;20237;-72
2022/03/12 03:23:24;;;;;;;9.57;4.20;;;7.50;50.60;;;7.83;nan;100892.19;5014046;28;20231;-72
2022/03/12 03:25:51;;;;;;;3.30;2.45;;;7.50;51.30;;;7.84;nan;100894.69;4997717;28;20214;-72
2022/03/12 03:28:19;;;;;;;3.90;3.30;;;7.50;50.70;;;7.84;nan;100894.69;5021870;28;20842;-71
2022/03/12 03:30:46;;;;;;;8.00;4.10;;;7.60;50.60;;;7.84;nan;100894.69;5013508;28;20214;-71
2022/03/12 03:33:25;;;;;;;6.72;4.47;;;7.50;50.70;;;7.72;nan;100895.38;5013237;28;20726;-72
2022/03/12 03:35:52;;;;;;;4.63;3.65;;;7.40;51.00;;;7.69;nan;100903.31;4994285;28;20211;-71
2022/03/12 03:38:20;;;;;;;4.95;2.83;;;7.40;51.20;;;7.69;nan;100898.13;4990644;28;20213;-72
2022/03/12 03:40:47;;;;;;;5.00;3.65;;;7.40;51.20;;;7.59;nan;100906.53;4995891;28;20222;-71
2022/03/12 03:43:19;;;;;;;3.97;3.25;;;7.30;51.50;;;7.58;nan;100910.88;5012772;28;20572;-71
2022/03/12 03:45:50;;;;;;;5.22;3.55;;;7.30;51.70;;;7.55;nan;100911.06;5013398;28;20218;-72
2022/03/12 03:48:21;;;;;;;6.20;4.40;;;7.30;51.90;;;7.52;nan;100918.16;4995761;28;20570;-72
2022/03/12 03:50:50;;;;;;;7.07;4.40;;;7.20;51.80;;;7.45;nan;100917.66;4995873;28;20697;-71
2022/03/12 03:53:21;;;;;;;6.28;4.47;;;7.20;52.20;;;7.49;nan;100918.34;5015600;23;20225;-71
2022/03/12 03:55:49;;;;;;;10.13;4.90;;;7.10;52.50;;;7.53;nan;100919.84;5027904;28;20234;-71
2022/03/12 03:58:16;;;;;;;9.50;4.30;;;7.20;52.70;;;7.53;nan;100922.44;5029394;28;20198;-71
2022/03/12 04:00:58;;;;;;;8.45;4.32;;;7.20;52.60;;;7.56;nan;100933.50;5035978;28;20497;-71
2022/03/12 04:03:34;;;;;;;6.50;4.40;;;7.20;52.50;;;7.55;nan;100929.22;5043889;28;20561;-71
2022/03/12 04:06:03;;;;;;;7.50;4.13;;;7.20;52.60;;;7.53;nan;100936.28;5030752;28;20202;-70
2022/03/12 04:08:34;;;;;;;6.60;4.35;;;7.20;52.80;;;7.50;nan;100927.78;5031407;28;20216;-71
2022/03/12 04:11:05;;;;;;;6.95;4.10;;;7.10;53.30;;;7.49;nan;100932.16;5018112;28;20205;-71
2022/03/12 04:13:34;;;;;;;7.75;4.13;;;7.10;53.50;;;7.49;nan;100932.16;5027938;28;20226;-71
2022/03/12 04:16:02;;;;;;;6.15;4.20;;;7.10;53.40;;;7.48;nan;100937.41;5026572;28;20210;-71
2022/03/12 04:18:31;;;;;;;5.25;4.20;;;7.10;53.60;;;7.42;nan;100930.81;5032403;28;20206;-71
2022/03/12 04:20:58;;;;;;;7.40;3.88;;;7.00;53.60;;;7.37;nan;100932.00;5033965;28;20701;-71
2022/03/12 04:23:25;;;;;;;7.95;3.95;;;7.10;53.80;;;7.34;nan;100943.38;5032321;28;20221;-71
2022/03/12 04:25:55;;;;;;;9.05;4.30;;;7.00;54.10;;;7.34;nan;100939.94;5033943;28;20206;-70
2022/03/12 04:28:25;;;;;;;7.55;4.82;;;7.00;54.20;;;7.27;nan;100944.63;5028867;28;20581;-70
2022/03/12 04:30:51;;;;;;;8.27;4.30;;;7.00;53.90;;;7.26;nan;100948.13;5032953;28;20206;-70
2022/03/12 04:33:19;;;;;;;4.90;3.97;;;7.00;54.10;;;7.21;nan;100942.34;5033002;28;20714;-70
2022/03/12 04:35:48;;;;;;;8.52;4.50;;;6.90;54.50;;;7.18;nan;100954.63;5012294;28;20670;-70
2022/03/12 04:38:15;;;;;;;8.10;4.43;;;6.80;54.40;;;7.09;nan;100948.19;5016064;28;20620;-70
2022/03/12 04:40:44;;;;;;;5.30;4.15;;;6.80;54.80;;;7.14;nan;100953.97;5031091;28;20218;-71
2022/03/12 04:43:12;;;;;;;6.32;3.85;;;6.80;55.20;;;7.12;nan;100955.81;5028407;28;20681;-70
2022/03/12 04:45:45;;;;;;;15.00;4.55;;;6.70;55.30;;;7.13;nan;100972.22;5028968;28;20499;-70
2022/03/12 04:48:18;;;;;;;6.88;4.15;;;6.80;55.60;;;7.08;nan;100959.47;5031687;28;20212;-70
2022/03/12 04:50:45;;;;;;;7.72;4.28;;;6.70;55.60;;;7.03;nan;100958.88;5015485;28;20218;-70
2022/03/12 04:53:13;;;;;;;7.32;4.55;;;6.70;55.50;;;6.97;nan;100973.00;4994921;28;20614;-70
2022/03/12 04:55:41;;;;;;;5.75;4.10;;;6.60;55.70;;;6.99;nan;100970.31;5030340;28;20202;-70
2022/03/12 04:58:09;;;;;;;6.72;4.20;;;6.60;55.80;;;6.96;nan;100973.91;5015639;28;20202;-70
2022/03/12 05:00:38;;;;;;;4.28;3.00;;;6.60;55.70;;;6.98;nan;100961.69;4998092;28;20226;-70
2022/03/12 05:03:14;;;;;;;7.57;4.72;;;6.60;55.70;;;6.95;nan;100969.66;5023656;28;20198;-70
2022/03/12 05:05:44;;;;;;;6.65;4.03;;;6.60;55.40;;;6.96;nan;100973.91;5031902;28;20208;-70
2022/03/12 05:08:22;;;;;;;6.80;3.70;;;6.60;55.90;;;6.96;nan;100967.91;5010276;28;20209;-70
2022/03/12 05:10:57;;;;;;;5.65;3.80;;;6.60;56.00;;;6.94;nan;100974.94;5031945;28;20670;-70
2022/03/12 05:13:24;;;;;;;4.35;3.50;;;6.60;55.60;;;6.90;nan;100969.03;5018380;28;20216;-70
2022/03/12 05:15:55;;;;;;;6.55;4.55;;;6.60;55.70;;;6.88;nan;100973.47;5023850;28;20209;-70
2022/03/12 05:18:25;;;;;;;9.02;3.97;;;6.60;55.60;;;6.87;nan;100963.19;5031004;28;20209;-70
2022/03/12 05:20:52;;;;;;;4.38;3.33;;;6.50;55.90;;;6.72;nan;100958.78;5022822;28;20729;-70
2022/03/12 05:23:20;;;;;;;6.72;4.15;;;6.50;55.50;;;6.74;nan;100970.75;5031128;28;20225;-70
2022/03/12 05:25:49;;;;;;;8.43;3.85;;;6.50;55.40;;;6.75;nan;100969.81;5023823;28;20206;-69
2022/03/12 05:28:23;;;;;;;4.25;3.05;;;6.50;55.90;;;6.73;nan;100961.28;5031139;28;20198;-70
2022/03/12 05:30:56;;;;;;;3.40;3.10;;;6.40;55.70;;;6.71;nan;100965.72;5013571;28;20210;-72
2022/03/12 05:33:24;;;;;;;11.38;4.97;;;6.40;55.80;;;6.74;nan;100964.72;5025785;28;20654;-72
2022/03/12 05:35:54;;;;;;;7.25;4.43;;;6.40;56.20;;;6.71;nan;100970.06;5030515;28;20634;-69
2022/03/12 05:38:23;;;;;;;6.57;4.15;;;6.40;56.60;;;6.71;nan;100976.09;5023848;28;20213;-69
2022/03/12 05:40:51;;;;;;;6.85;3.90;;;6.40;56.70;;;6.79;nan;100980.91;5022426;28;20233;-70
2022/03/12 05:43:19;;;;;;;8.35;4.03;;;6.50;56.70;;;6.84;nan;100978.91;5031925;28;20222;-69
2022/03/12 05:45:50;;;;;;;6.82;4.28;;;6.50;56.60;;;6.83;nan;100978.09;5014609;28;20198;-70
2022/03/12 05:48:17;;;;;;;5.40;4.35;;;6.50;56.80;;;6.88;nan;100981.25;5029569;28;20693;-70
2022/03/12 05:50:48;;;;;;;6.03;4.40;;;6.50;56.80;;;6.94;nan;100974.94;5029984;28;20205;-70
2022/03/12 05:53:19;;;;;;;5.63;4.07;;;6.60;57.00;;;6.99;nan;100986.75;5030351;28;20241;-70
2022/03/12 05:55:48;;;;;;;8.50;4.50;;;6.70;56.60;;;7.02;nan;100994.38;5028761;28;20209;-70
2022/03/12 05:58:19;;;;;;;6.45;3.63;;;6.70;56.60;;;7.05;nan;100982.97;5032241;28;20209;-71
2022/03/12 06:00:47;;;;;;;7.05;4.03;;;6.70;56.40;;;7.11;nan;100990.47;4997120;28;20222;-72
2022/03/12 06:03:15;;;;;;;5.90;3.80;;;6.80;56.00;;;7.14;nan;100992.88;5014030;28;20225;-70
2022/03/12 06:05:43;;;;;;;10.13;3.90;;;6.90;56.10;;;7.21;nan;100994.25;5010963;28;20216;-72
2022/03/12 06:08:21;;;;;;;5.53;4.47;;;6.90;55.80;;;7.32;nan;100991.09;5026112;28;20214;-72
2022/03/12 06:10:57;;;;;;;7.75;4.50;;;7.10;55.50;;;7.47;nan;100991.13;5014788;28;20210;-72
2022/03/12 06:13:28;;;;;;;8.10;5.05;;;7.20;55.30;;;7.64;nan;100993.66;5023500;28;20229;-72
2022/03/12 06:16:00;;;;;;;5.07;4.00;;;7.40;54.80;;;7.84;nan;100995.16;5012981;28;20213;-72
2022/03/12 06:18:29;;;;;;;7.38;4.50;;;7.60;54.30;;;8.16;nan;101001.16;5016207;28;20694;-72
2022/03/12 06:20:56;;;;;;;6.20;4.40;;;8.00;53.60;;;8.55;nan;101006.75;5020819;28;20230;-72
2022/03/12 06:23:23;;;;;;;4.93;4.20;;;8.50;52.60;;;8.92;nan;100995.84;5012786;28;20668;-72
2022/03/12 06:25:51;;;;;;;7.30;4.37;;;9.00;51.30;;;9.25;nan;100996.44;5030774;28;20209;-72
2022/03/12 06:28:20;;;;;;;6.03;4.30;;;9.30;50.40;;;9.57;nan;100996.22;5014614;28;20632;-72
2022/03/12 06:30:48;;;;;;;5.60;4.20;;;9.70;49.70;;;9.94;nan;100995.63;5010837;28;20636;-70
2022/03/12 06:33:18;;;;;;;6.83;4.23;;;10.20;49.70;;;10.26;nan;101002.25;5040842;28;20656;-70
2022/03/12 06:35:46;;;;;;;8.83;4.50;;;10.50;48.00;;;10.71;nan;101009.66;5029598;28;21000;-70
2022/03/12 06:38:15;;;;;;;9.87;5.47;;;11.10;47.00;;;11.31;nan;101003.81;4999732;28;20636;-73
2022/03/12 06:40:43;;;;;;;7.50;5.17;;;11.80;46.20;;;11.96;nan;101018.38;5025771;28;20691;-73
2022/03/12 06:43:16;;;;;;;5.50;4.00;;;12.50;44.70;;;12.17;nan;101016.84;5030752;28;21196;-70
2022/03/12 06:45:43;;;;;;;6.17;4.00;;;13.10;43.40;;;12.83;nan;101018.03;5028157;28;20667;-71
2022/03/12 06:48:10;;;;;;;7.07;4.47;;;13.50;42.70;;;13.00;nan;101023.69;5009487;28;20629;-69
2022/03/12 06:50:37;;;;;;;6.00;4.47;;;13.60;42.40;;;13.31;nan;101011.72;5010663;28;21223;-70
2022/03/12 06:53:04;;;;;;;10.17;4.43;;;13.80;42.10;;;13.60;nan;101009.44;5007764;28;20625;-70
2022/03/12 06:55:33;;;;;;;8.47;5.23;;;14.10;41.80;;;13.93;nan;101012.84;5021572;28;20633;-72
2022/03/12 06:58:03;;;;;;;8.53;4.90;;;14.50;41.30;;;14.24;nan;101015.66;5012352;28;20632;-70
2022/03/12 07:00:31;;;;;;;8.17;4.90;;;14.80;40.70;;;14.43;nan;101028.97;5028525;28;20633;-71
2022/03/12 07:02:59;;;;;;;6.57;4.50;;;15.10;40.40;;;14.72;nan;101032.66;5012116;28;20640;-71
2022/03/12 07:05:27;;;;;;;7.43;5.50;;;15.20;40.20;;;14.80;nan;101027.59;5007020;28;20632;-71
2022/03/12 07:07:55;;;;;;;7.20;5.03;;;15.40;40.00;;;14.94;nan;101034.34;5026768;28;20625;-72
2022/03/12 07:10:23;;;;;;;13.40;6.03;;;15.50;39.60;;;14.94;nan;101032.56;5027573;28;20636;-71
2022/03/12 07:12:51;;;;;;;10.03;5.47;;;15.80;39.40;;;15.32;nan;101030.16;5030121;28;20628;-71
2022/03/12 07:15:20;;;;;;;10.57;6.00;;;16.10;39.20;;;15.94;nan;101037.88;4999620;28;20665;-71
2022/03/12 07:17:47;;;;;;;5.53;4.97;;;16.60;38.70;;;16.28;nan;101025.19;5010898;28;20629;-70
2022/03/12 07:20:16;;;;;;;10.87;4.93;;;16.80;38.00;;;16.69;nan;101032.88;4995080;28;21043;-71
2022/03/12 07:22:44;;;;;;;6.60;4.90;;;17.20;37.60;;;16.90;nan;101032.72;5012007;28;20664;-71
2022/03/12 07:25:13;;;;;;;8.27;5.70;;;17.60;36.60;;;17.29;nan;101038.72;5030979;28;20644;-71
2022/03/12 07:27:42;;;;;;;7.70;4.70;;;17.80;36.40;;;17.63;nan;101030.16;5027468;28;20633;-71
2022/03/12 07:30:13;;;;;;;11.30;7.03;;;18.10;36.00;;;17.78;nan;101027.88;5009807;28;20628;-71
2022/03/12 07:32:44;;;;;;;12.83;7.37;;;18.20;36.00;;;18.16;nan;101025.00;4993245;28;20625;-71
2022/03/12 07:35:15;;;;;;;7.97;5.70;;;18.70;35.50;;;18.59;nan;101035.66;4993842;28;20677;-71
2022/03/12 07:37:44;;;;;;;7.87;5.50;;;19.20;35.10;;;18.50;nan;101033.97;5010340;28;21126;-71
2022/03/12 07:40:15;;;;;;;7.60;5.20;;;19.40;34.90;;;18.53;nan;101035.44;5029412;28;20613;-71
2022/03/12 07:42:42;;;;;;;9.07;6.20;;;19.30;34.80;;;19.22;nan;101036.31;5027797;28;21243;-71
2022/03/12 07:45:10;;;;;;;10.37;6.63;;;19.80;34.60;;;19.37;nan;101028.66;5030283;28;20647;-71
2022/03/12 07:47:38;;;;;;;11.13;7.27;;;20.00;34.10;;;19.27;nan;101035.88;4995693;28;21258;-71
2022/03/12 07:50:08;;;;;;;9.23;7.00;;;19.80;34.00;;;19.00;nan;101041.28;5013509;28;20635;-70
2022/03/12 07:52:35;;;;;;;9.23;6.50;;;19.50;34.30;;;18.65;nan;101036.91;5027983;28;20631;-72
2022/03/12 07:55:05;;;;;;;9.87;6.53;;;19.20;34.40;;;17.36;nan;101043.28;5022515;28;21273;-71
2022/03/12 07:57:32;;;;;;;11.33;6.27;;;18.60;34.50;;;18.11;nan;101045.75;5026112;28;21206;-71
2022/03/12 08:00:00;;;;;;;9.73;5.90;;;18.40;35.00;;;18.43;nan;101043.44;5024375;28;20636;-72
2022/03/12 08:02:27;;;;;;;12.17;6.50;;;18.80;34.50;;;18.22;nan;101050.81;5008757;28;20669;-71
2022/03/12 08:04:54;;;;;;;8.93;6.40;;;18.70;34.70;;;17.74;nan;101045.78;5033143;28;21011;-71
2022/03/12 08:07:21;;;;;;;9.00;6.40;;;18.50;34.70;;;18.27;nan;101053.00;5032281;28;20621;-71
2022/03/12 08:09:55;;;;;;;9.50;6.73;;;18.60;34.90;;;18.56;nan;101046.56;5015211;28;21280;-71
2022/03/12 08:12:25;;;;;;;11.27;6.20;;;18.80;34.90;;;18.47;nan;101049.28;5018309;28;20633;-71
2022/03/12 08:14:52;;;;;;;8.13;5.97;;;18.80;34.60;;;18.29;nan;101043.94;5024364;28;20659;-71
2022/03/12 08:17:20;;;;;;;10.40;6.70;;;18.70;34.80;;;17.87;nan;101044.66;5031278;28;20634;-72
2022/03/12 08:19:47;;;;;;;9.17;6.40;;;18.50;34.90;;;17.71;nan;101056.66;5008033;28;20635;-71
2022/03/12 08:22:14;;;;;;;9.33;5.93;;;18.10;35.30;;;17.36;nan;101050.34;5015393;28;20660;-71
2022/03/12 08:24:42;;;;;;;8.40;6.70;;;18.00;35.30;;;17.78;nan;101047.16;4976631;28;20667;-74
2022/03/12 08:27:09;;;;;;;8.57;6.03;;;18.10;35.60;;;18.54;nan;101045.88;5032152;28;20620;-71
2022/03/12 08:29:36;;;;;;;7.57;5.33;;;18.90;34.90;;;19.26;nan;101045.59;5012208;28;20629;-71
2022/03/12 08:32:07;;;;;;;11.67;6.53;;;19.80;34.10;;;19.33;nan;101053.75;5016185;28;21215;-70
2022/03/12 08:34:34;;;;;;;9.53;6.47;;;20.20;33.70;;;19.49;nan;101053.88;5015866;28;20659;-71
2022/03/12 08:37:03;;;;;;;10.30;6.57;;;20.20;33.60;;;19.48;nan;101057.53;4999382;28;20648;-69
2022/03/12 08:39:31;;;;;;;10.70;6.33;;;20.20;33.60;;;19.57;nan;101055.75;5003855;28;20679;-71
2022/03/12 08:41:58;;;;;;;8.83;6.33;;;20.30;33.60;;;19.27;nan;101059.69;5032395;28;20674;-72
2022/03/12 08:44:25;;;;;;;8.23;6.60;;;20.10;33.60;;;20.24;nan;101070.75;5014274;28;20656;-70
2022/03/12 08:46:53;;;;;;;8.63;6.90;;;20.90;33.20;;;21.32;nan;101069.50;4999968;28;20628;-71
2022/03/12 08:49:20;;;;;;;9.80;6.13;;;22.20;32.40;;;22.24;nan;101072.31;5019558;28;20639;-71
2022/03/12 08:51:47;;;;;;;9.87;6.80;;;23.60;31.20;;;21.89;nan;101064.84;5007636;28;20624;-71
2022/03/12 08:54:14;;;;;;;9.63;7.33;;;23.30;31.00;;;22.33;nan;101067.78;5047762;28;20663;-65
2022/03/12 08:56:41;;;;;;;10.70;6.90;;;23.40;31.00;;;22.97;nan;101064.69;5031875;28;21183;-71
2022/03/12 08:59:09;;;;;;;10.77;7.77;;;24.00;31.70;;;22.97;nan;101063.84;5012770;28;20911;-70
2022/03/12 09:01:36;;;;;;;10.63;7.40;;;24.90;30.00;;;24.29;nan;101062.03;4998093;28;20671;-71
2022/03/12 09:04:04;;;;;;;10.80;7.17;;;25.90;29.80;;;25.31;nan;101069.53;5031657;28;20656;-71
2022/03/12 09:06:32;;;;;;;10.10;7.73;;;27.00;29.40;;;26.36;nan;101068.25;5014237;28;20640;-70
2022/03/12 09:08:59;;;;;;;13.80;8.50;;;28.40;28.90;;;26.51;nan;101065.38;4997674;28;20621;-71
2022/03/12 09:11:26;;;;;;;9.50;7.30;;;29.20;28.30;;;25.83;nan;101071.72;5032078;28;20636;-71
2022/03/12 09:13:54;;;;;;;10.13;7.67;;;28.90;28.20;;;27.26;nan;101067.72;5013565;28;20722;-70
2022/03/12 09:16:22;;;;;;;10.83;7.70;;;29.50;28.30;;;28.06;nan;101065.44;5031431;28;20629;-70
2022/03/12 09:18:51;;;;;;;11.60;8.50;;;30.70;28.00;;;28.05;nan;101071.84;5014762;28;20623;-72
2022/03/12 09:21:18;;;;;;;12.60;8.10;;;30.70;27.80;;;28.19;nan;101059.19;5005602;28;20647;-71
2022/03/12 09:23:45;;;;;;;9.93;7.93;;;31.00;27.40;;;29.35;nan;101066.59;5004561;28;20657;-72
2022/03/12 09:26:14;;;;;;;10.17;8.20;;;31.80;27.50;;;29.94;nan;101071.34;5027287;28;21241;-72
2022/03/12 09:28:41;;;;;;;10.50;8.10;;;32.60;27.30;;;30.57;nan;101063.66;5005591;28;21161;-73
2022/03/12 09:31:09;;;;;;;10.90;8.30;;;33.20;27.10;;;30.53;nan;101066.00;5009068;28;21203;-72
2022/03/12 09:33:38;;;;;;;12.83;8.07;;;33.40;26.80;;;28.70;nan;101067.97;4981038;28;21232;-72
2022/03/12 09:36:08;;;;;;;13.33;8.33;;;32.20;26.90;;;25.41;nan;101064.66;5025023;28;20638;-71
2022/03/12 09:38:37;;;;;;;13.40;8.30;;;29.70;27.50;;;26.53;nan;101052.63;4993294;28;20617;-70
2022/03/12 09:41:05;;;;;;;11.00;8.40;;;28.40;28.00;;;26.90;nan;101046.69;4995223;28;20621;-71
2022/03/12 09:43:32;;;;;;;16.90;8.27;;;28.50;28.20;;;26.28;nan;101046.22;5025572;28;20668;-71
2022/03/12 09:46:00;;;;;;;15.23;8.57;;;28.50;28.20;;;26.43;nan;101046.84;5029245;28;21451;-71
2022/03/12 09:48:27;;;;;;;9.70;7.40;;;28.40;28.20;;;27.43;nan;101048.31;4995825;28;20700;-71
2022/03/12 09:50:55;;;;;;;9.57;7.57;;;29.10;28.20;;;28.81;nan;101047.66;5020448;28;20630;-70
2022/03/12 09:53:23;;;;;;;14.90;8.13;;;30.80;27.70;;;29.05;nan;101049.50;4992860;28;20673;-72
2022/03/12 09:55:50;;;;;;;11.57;8.40;;;31.80;27.40;;;28.49;nan;101048.69;5002349;28;20644;-72
2022/03/12 09:58:18;;;;;;;9.33;8.00;;;31.30;27.40;;;28.34;nan;101057.88;5013451;28;21031;-72
2022/03/12 10:00:46;;;;;;;15.40;9.57;;;30.50;27.60;;;28.85;nan;101054.22;5021121;28;20632;-72
2022/03/12 10:03:13;;;;;;;11.17;8.03;;;31.00;27.60;;;29.87;nan;101057.97;5023642;28;20671;-72
2022/03/12 10:05:40;;;;;;;10.50;8.47;;;32.20;27.30;;;30.49;nan;101059.44;5012113;28;20629;-72
2022/03/12 10:08:07;;;;;;;14.27;8.93;;;33.00;27.00;;;30.64;nan;101056.31;5004010;28;20637;-72
2022/03/12 10:10:35;;;;;;;12.77;9.43;;;33.40;26.90;;;31.08;nan;101057.66;5012564;28;20625;-72
2022/03/12 10:13:04;;;;;;;9.10;7.30;;;34.30;26.80;;;31.32;nan;101053.91;5029752;28;20644;-76
2022/03/12 10:15:31;;;;;;;10.70;7.87;;;34.00;26.80;;;31.61;nan;101052.94;5027610;28;20627;-71
2022/03/12 10:18:00;;;;;;;10.23;8.83;;;34.10;26.70;;;31.55;nan;101045.81;5023857;28;20632;-71
2022/03/12 10:20:27;;;;;;;9.60;8.20;;;33.90;26.60;;;31.63;nan;101037.34;4993303;28;20629;-72
2022/03/12 10:22:54;;;;;;;9.33;8.10;;;33.90;26.70;;;32.04;nan;101037.13;5012979;28;20687;-72
2022/03/12 10:25:22;;;;;;;10.03;8.63;;;34.40;26.70;;;32.82;nan;101039.03;5031065;28;20620;-73
2022/03/12 10:27:49;;;;;;;11.90;9.63;;;35.50;26.60;;;33.36;nan;101029.31;4997640;28;20632;-72
2022/03/12 10:30:17;;;;;;;10.27;8.63;;;36.30;26.40;;;33.75;nan;101033.66;5030276;28;20632;-70
2022/03/12 10:32:47;;;;;;;14.40;8.80;;;36.80;26.20;;;34.38;nan;101032.97;4996188;28;20705;-66
2022/03/12 10:35:18;;;;;;;13.67;10.80;;;37.40;26.20;;;34.31;nan;101025.06;5029550;28;21215;-65
2022/03/12 10:37:50;;;;;;;12.83;11.37;;;37.40;26.10;;;33.87;nan;101023.50;5025453;28;21186;-67
2022/03/12 10:40:21;;;;;;;14.40;11.20;;;36.80;26.20;;;32.94;nan;101026.28;5025188;28;20710;-65
2022/03/12 10:42:59;;;;;;;11.90;10.13;;;36.20;26.10;;;32.87;nan;101020.19;5004236;28;20698;-66